createdAt,value
2023-04-23T00:02:13.315Z,74.37
2023-04-23T00:04:52.935Z,81.87
2023-04-23T00:07:22.855Z,77.33
2023-04-23T00:09:56.748Z,81.20
2023-04-23T00:12:26.387Z,83.83
2023-04-23T00:14:55.851Z,83.73
2023-04-23T00:17:24.721Z,74.70
2023-04-23T00:19:53.240Z,69.90
2023-04-23T00:22:22.128Z,76.53
2023-04-23T00:24:52.065Z,77.63
2023-04-23T00:27:31.623Z,76.47
2023-04-23T00:30:00.049Z,80.57
2023-04-23T00:32:28.563Z,76.43
2023-04-23T00:34:57.223Z,76.27
2023-04-23T00:37:26.148Z,80.20
2023-04-23T00:39:56.505Z,73.50
2023-04-23T00:42:24.949Z,75.77
2023-04-23T00:44:54.101Z,78.50
2023-04-23T00:47:23.575Z,72.83
2023-04-23T00:49:55.694Z,78.07
2023-04-23T00:52:24.137Z,65.80
2023-04-23T00:54:52.866Z,75.23
2023-04-23T00:57:23.518Z,71.03
2023-04-23T00:59:52.118Z,72.40
2023-04-23T01:02:20.933Z,67.33
2023-04-23T01:04:51.730Z,65.43
2023-04-23T01:07:20.479Z,69.17
2023-04-23T01:09:50.566Z,71.90
2023-04-23T01:12:19.601Z,66.60
2023-04-23T01:14:49.671Z,70.80
2023-04-23T01:17:18.071Z,74.10
2023-04-23T01:19:46.634Z,73.33
2023-04-23T01:22:17.575Z,70.80
2023-04-23T01:24:46.272Z,75.47
2023-04-23T01:27:14.837Z,67.63
2023-04-23T01:29:43.817Z,75.50
2023-04-23T01:32:12.595Z,69.13
2023-04-23T01:34:42.846Z,69.27
2023-04-23T01:37:12.516Z,68.37
2023-04-23T01:39:42.434Z,69.20
2023-04-23T01:42:11.180Z,74.67
2023-04-23T01:44:39.961Z,67.03
2023-04-23T01:47:08.777Z,69.53
2023-04-23T01:49:37.375Z,65.50
2023-04-23T01:52:05.988Z,70.70
2023-04-23T01:54:34.389Z,71.33
2023-04-23T01:57:04.394Z,64.87
2023-04-23T01:59:32.898Z,69.03
2023-04-23T02:02:01.520Z,64.23
2023-04-23T02:04:32.040Z,71.03
2023-04-23T02:07:01.361Z,71.00
2023-04-23T02:09:29.728Z,70.97
2023-04-23T02:11:58.334Z,69.97
2023-04-23T02:14:28.213Z,68.93
2023-04-23T02:16:57.813Z,70.03
2023-04-23T02:19:26.469Z,72.80
2023-04-23T02:21:54.940Z,66.47
2023-04-23T02:24:23.921Z,72.63
2023-04-23T02:26:52.490Z,75.50
2023-04-23T02:29:23.800Z,80.60
2023-04-23T02:31:53.796Z,76.57
2023-04-23T02:34:22.690Z,78.03
2023-04-23T02:36:51.118Z,77.93
2023-04-23T02:39:19.804Z,76.53
2023-04-23T02:41:48.382Z,77.40
2023-04-23T02:44:16.938Z,72.70
2023-04-23T02:46:46.277Z,86.63
2023-04-23T02:49:16.194Z,81.87
2023-04-23T02:51:44.690Z,85.77
2023-04-23T02:54:13.953Z,85.77
2023-04-23T02:56:42.402Z,92.83
2023-04-23T02:59:11.255Z,89.03
2023-04-23T03:01:39.699Z,84.93
2023-04-23T03:04:08.204Z,90.13
2023-04-23T03:06:38.126Z,85.60
2023-04-23T03:09:06.924Z,91.87
2023-04-23T03:11:35.592Z,97.50
2023-04-23T03:14:04.013Z,90.40
2023-04-23T03:16:33.158Z,104.83
2023-04-23T03:19:02.225Z,92.53
2023-04-23T03:21:30.686Z,102.67
2023-04-23T03:24:00.394Z,106.73
2023-04-23T03:26:28.756Z,98.67
2023-04-23T03:28:57.326Z,106.00
2023-04-23T03:31:26.043Z,106.57
2023-04-23T03:33:54.771Z,111.50
2023-04-23T03:36:23.526Z,129.13
2023-04-23T03:38:52.755Z,132.10
2023-04-23T03:41:23.169Z,140.87
2023-04-23T03:43:52.126Z,146.80
2023-04-23T03:46:21.455Z,118.37
2023-04-23T03:48:49.921Z,148.63
2023-04-23T03:51:18.412Z,133.40
2023-04-23T03:53:46.994Z,152.40
2023-04-23T03:56:15.639Z,146.53
2023-04-23T03:58:45.476Z,145.57
2023-04-23T04:01:13.952Z,150.00
2023-04-23T04:03:42.619Z,159.97
2023-04-23T04:06:11.899Z,155.40
2023-04-23T04:08:40.350Z,155.60
2023-04-23T04:11:08.733Z,158.00
2023-04-23T04:13:37.259Z,160.93
2023-04-23T04:16:07.994Z,165.73
2023-04-23T04:18:36.775Z,155.80
2023-04-23T04:21:05.888Z,175.50
2023-04-23T04:23:35.100Z,166.57
2023-04-23T04:26:03.671Z,178.57
2023-04-23T04:28:36.308Z,193.80
2023-04-23T04:31:06.875Z,193.97
2023-04-23T04:33:36.073Z,182.27
2023-04-23T04:36:05.088Z,194.37
2023-04-23T04:38:33.557Z,198.30
2023-04-23T04:41:02.732Z,199.30
2023-04-23T04:43:31.197Z,194.27
2023-04-23T04:46:00.353Z,185.17
2023-04-23T04:48:30.136Z,202.10
2023-04-23T04:50:59.073Z,202.57
2023-04-23T04:53:27.845Z,214.57
2023-04-23T04:55:58.315Z,197.13
2023-04-23T04:58:27.298Z,196.90
2023-04-23T05:00:56.353Z,197.00
2023-04-23T05:03:25.006Z,200.27
2023-04-23T05:05:56.553Z,182.97
2023-04-23T05:08:24.963Z,206.87
2023-04-23T05:10:56.484Z,187.83
2023-04-23T05:13:25.888Z,231.03
2023-04-23T05:15:54.538Z,201.80
2023-04-23T05:18:23.281Z,209.77
2023-04-23T05:20:52.235Z,210.73
2023-04-23T05:23:22.636Z,218.63
2023-04-23T05:25:54.166Z,212.37
2023-04-23T05:28:25.180Z,197.60
2023-04-23T05:30:53.910Z,187.37
2023-04-23T05:33:33.395Z,189.20
2023-04-23T05:36:05.353Z,197.10
2023-04-23T05:38:35.556Z,196.57
2023-04-23T05:41:04.112Z,183.83
2023-04-23T05:43:32.626Z,190.00
2023-04-23T05:46:01.023Z,193.90
2023-04-23T05:48:31.124Z,184.17
2023-04-23T05:51:00.044Z,179.40
2023-04-23T05:53:29.693Z,170.17
2023-04-23T05:55:59.682Z,177.07
2023-04-23T05:58:28.111Z,187.43
2023-04-23T06:00:57.711Z,178.27
2023-04-23T06:03:26.925Z,177.37
2023-04-23T06:05:56.293Z,186.73
2023-04-23T06:08:27.499Z,180.23
2023-04-23T06:10:56.271Z,169.90
2023-04-23T06:13:28.156Z,172.00
2023-04-23T06:15:57.118Z,179.80
2023-04-23T06:18:27.604Z,166.93
2023-04-23T06:20:57.032Z,173.80
2023-04-23T06:23:25.946Z,164.73
2023-04-23T06:25:54.377Z,164.33
2023-04-23T06:28:22.910Z,163.60
2023-04-23T06:30:53.264Z,145.33
2023-04-23T06:33:22.106Z,143.80
2023-04-23T06:35:51.135Z,143.50
2023-04-23T06:38:21.282Z,140.40
2023-04-23T06:40:49.844Z,139.03
2023-04-23T06:43:18.455Z,133.43
2023-04-23T06:45:47.313Z,136.00
2023-04-23T06:48:18.651Z,134.37
2023-04-23T06:50:47.530Z,130.93
2023-04-23T06:53:16.032Z,135.87
2023-04-23T06:55:44.448Z,128.20
2023-04-23T06:58:14.196Z,120.30
2023-04-23T07:00:43.892Z,120.33
2023-04-23T07:03:12.934Z,118.43
2023-04-23T07:05:42.894Z,116.73
2023-04-23T07:08:11.282Z,108.07
2023-04-23T07:10:39.643Z,108.07
2023-04-23T07:13:08.001Z,105.70
2023-04-23T07:15:38.008Z,107.87
2023-04-23T07:18:07.361Z,97.97
2023-04-23T07:20:35.871Z,89.97
2023-04-23T07:23:06.346Z,86.00
2023-04-23T07:25:34.769Z,84.93
2023-04-23T07:28:04.240Z,88.93
2023-04-23T07:30:32.699Z,80.90
2023-04-23T07:33:01.190Z,70.70
2023-04-23T07:35:29.600Z,69.93
2023-04-23T07:37:58.055Z,72.20
2023-04-23T07:40:28.136Z,65.77
2023-04-23T07:42:58.936Z,68.97
2023-04-23T07:45:27.559Z,68.77
2023-04-23T07:47:56.565Z,63.87
2023-04-23T07:50:25.061Z,65.93
2023-04-23T07:52:53.849Z,64.97
2023-04-23T07:55:22.560Z,62.97
2023-04-23T07:57:52.427Z,61.50
2023-04-23T08:00:21.247Z,56.67
2023-04-23T08:02:50.021Z,56.00
2023-04-23T08:05:18.494Z,56.83
2023-04-23T08:07:46.847Z,51.27
2023-04-23T08:10:15.216Z,50.13
2023-04-23T08:12:43.573Z,53.40
2023-04-23T08:15:14.019Z,46.53
2023-04-23T08:17:42.652Z,48.07
2023-04-23T08:20:12.195Z,50.50
2023-04-23T08:22:40.611Z,47.50
2023-04-23T08:25:10.808Z,46.97
2023-04-23T08:27:39.158Z,47.43
2023-04-23T08:30:13.944Z,48.73
2023-04-23T08:32:44.229Z,48.90
2023-04-23T08:35:13.569Z,43.70
2023-04-23T08:37:42.106Z,43.27
2023-04-23T08:40:11.499Z,43.43
2023-04-23T08:42:45.079Z,42.87
2023-04-23T08:45:15.040Z,43.20
2023-04-23T08:47:45.454Z,43.43
2023-04-23T08:50:16.561Z,39.40
2023-04-23T08:52:52.066Z,39.87
2023-04-23T08:55:21.277Z,39.23
2023-04-23T08:57:50.985Z,37.30
2023-04-23T09:00:23.221Z,31.93
2023-04-23T09:02:54.399Z,34.07
2023-04-23T09:05:23.447Z,33.47
2023-04-23T09:07:53.006Z,30.63
2023-04-23T09:10:22.138Z,28.77
2023-04-23T09:12:50.864Z,31.87
2023-04-23T09:15:19.665Z,33.97
2023-04-23T09:17:49.870Z,29.47
2023-04-23T09:20:20.054Z,29.73
2023-04-23T09:22:49.936Z,26.83
2023-04-23T09:25:20.360Z,29.60
2023-04-23T09:27:50.172Z,25.83
2023-04-23T09:30:20.139Z,27.70
2023-04-23T09:32:49.841Z,27.40
2023-04-23T09:35:22.670Z,28.83
2023-04-23T09:37:53.374Z,28.03
2023-04-23T09:40:25.324Z,27.77
2023-04-23T09:42:55.184Z,27.47
2023-04-23T09:45:25.172Z,24.47
2023-04-23T09:47:55.998Z,22.37
2023-04-23T09:50:37.000Z,20.83
2023-04-23T09:53:06.496Z,19.40
2023-04-23T09:55:38.716Z,18.43
2023-04-23T09:58:11.551Z,19.37
2023-04-23T10:00:41.555Z,16.10
2023-04-23T10:03:12.150Z,16.27
2023-04-23T10:06:00.217Z,14.27
2023-04-23T10:08:30.431Z,14.47
2023-04-23T10:11:13.519Z,17.83
2023-04-23T10:13:47.611Z,15.77
2023-04-23T10:16:23.098Z,15.20
2023-04-23T10:18:57.002Z,15.93
2023-04-23T10:21:46.657Z,15.10
2023-04-23T10:24:22.135Z,12.70
2023-04-23T10:26:52.896Z,13.77
2023-04-23T10:29:29.100Z,14.13
2023-04-23T10:31:59.897Z,13.77
2023-04-23T10:34:30.281Z,11.93
2023-04-23T10:37:02.460Z,13.43
2023-04-23T10:39:34.590Z,10.73
2023-04-23T10:42:04.297Z,11.47
2023-04-23T10:47:15.700Z,11.23
2023-04-23T10:49:45.384Z,12.20
2023-04-23T10:52:20.322Z,13.80
2023-04-23T10:54:58.020Z,13.17
2023-04-23T10:57:26.492Z,11.23
2023-04-23T10:59:59.025Z,10.80
2023-04-23T11:02:28.218Z,9.70
2023-04-23T11:04:58.861Z,7.97
2023-04-23T11:07:33.952Z,9.37
2023-04-23T11:10:12.888Z,9.43
2023-04-23T11:12:42.360Z,7.10
2023-04-23T11:15:15.390Z,9.63
2023-04-23T11:18:03.397Z,7.33
2023-04-23T11:20:31.980Z,6.50
2023-04-23T11:23:01.900Z,7.33
2023-04-23T11:25:30.627Z,8.27
2023-04-23T11:28:00.200Z,8.17
2023-04-23T11:30:30.967Z,12.23
2023-04-23T11:33:01.553Z,8.67
2023-04-23T11:35:37.948Z,5.80
2023-04-23T11:38:11.322Z,6.60
2023-04-23T11:40:40.727Z,6.10
2023-04-23T11:43:09.813Z,6.65
2023-04-23T11:45:38.357Z,8.82
2023-04-23T11:48:08.014Z,5.23
2023-04-23T11:50:38.521Z,7.90
2023-04-23T11:53:07.675Z,5.55
2023-04-23T11:55:38.229Z,5.68
2023-04-23T11:58:06.703Z,6.10
2023-04-23T12:00:35.287Z,5.57
2023-04-23T12:03:06.071Z,9.45
2023-04-23T12:05:37.022Z,6.60
2023-04-23T12:08:10.203Z,4.43
2023-04-23T12:10:49.541Z,4.55
2023-04-23T12:13:20.431Z,4.35
2023-04-23T12:15:51.156Z,3.97
2023-04-23T12:18:20.035Z,3.75
2023-04-23T12:20:48.605Z,3.58
2023-04-23T12:23:17.030Z,3.13
2023-04-23T12:25:46.906Z,4.32
2023-04-23T12:28:15.545Z,4.28
2023-04-23T12:30:47.248Z,3.10
2023-04-23T12:33:15.775Z,3.60
2023-04-23T12:35:46.470Z,3.80
2023-04-23T12:38:25.877Z,4.82
2023-04-23T12:41:01.905Z,3.85
2023-04-23T12:43:30.358Z,3.42
2023-04-23T12:45:58.742Z,4.03
2023-04-23T12:48:27.553Z,4.10
2023-04-23T12:50:56.375Z,3.60
2023-04-23T12:53:24.825Z,5.85
2023-04-23T12:55:55.309Z,4.38
2023-04-23T12:58:23.693Z,5.50
2023-04-23T13:00:52.558Z,4.60
2023-04-23T13:03:21.433Z,4.22
2023-04-23T13:05:50.282Z,3.63
2023-04-23T13:08:18.668Z,3.72
2023-04-23T13:10:47.021Z,3.90
2023-04-23T13:13:16.770Z,3.40
2023-04-23T13:15:45.243Z,3.33
2023-04-23T13:18:13.576Z,4.95
2023-04-23T13:20:41.959Z,3.95
2023-04-23T13:23:11.575Z,3.75
2023-04-23T13:25:40.088Z,3.72
2023-04-23T13:28:08.909Z,3.88
2023-04-23T13:30:39.757Z,4.53
2023-04-23T13:33:08.213Z,4.78
2023-04-23T13:35:38.077Z,5.18
2023-04-23T13:38:06.466Z,3.47
2023-04-23T13:40:35.521Z,3.15
2023-04-23T13:43:03.878Z,3.53
2023-04-23T13:45:32.423Z,4.18
2023-04-23T13:48:09.052Z,4.70
2023-04-23T13:50:38.104Z,5.25
2023-04-23T13:53:06.597Z,3.00
2023-04-23T13:55:34.938Z,4.70
2023-04-23T13:58:03.837Z,3.15
2023-04-23T14:00:32.533Z,4.65
2023-04-23T14:03:02.365Z,2.78
2023-04-23T14:05:31.860Z,3.80
2023-04-23T14:08:00.222Z,2.80
2023-04-23T14:10:29.501Z,5.72
2023-04-23T14:12:58.472Z,4.72
2023-04-23T14:15:27.613Z,4.40
2023-04-23T14:17:56.381Z,3.92
2023-04-23T14:20:26.374Z,3.45
2023-04-23T14:23:03.590Z,2.35
2023-04-23T14:25:38.204Z,5.57
2023-04-23T14:28:29.862Z,6.10
2023-04-23T14:30:59.433Z,3.33
2023-04-23T14:33:28.100Z,4.53
2023-04-23T14:35:58.359Z,4.70
2023-04-23T14:38:27.732Z,7.03
2023-04-23T14:40:58.533Z,5.53
2023-04-23T14:43:27.253Z,4.18
2023-04-23T14:45:55.910Z,3.53
2023-04-23T14:48:24.868Z,2.67
2023-04-23T14:50:53.434Z,3.65
2023-04-23T14:53:27.659Z,4.38
2023-04-23T14:55:56.673Z,3.28
2023-04-23T14:58:25.435Z,3.80
2023-04-23T15:00:54.379Z,3.30
2023-04-23T15:03:23.737Z,4.50
2023-04-23T15:05:52.764Z,3.60
2023-04-23T15:08:24.053Z,3.55
2023-04-23T15:10:52.643Z,3.17
2023-04-23T15:13:39.821Z,3.67
2023-04-23T15:16:28.425Z,4.03
2023-04-23T15:19:10.172Z,3.13
2023-04-23T15:21:39.067Z,3.45
2023-04-23T15:24:08.975Z,3.05
2023-04-23T15:26:37.820Z,3.80
2023-04-23T15:29:09.069Z,3.45
2023-04-23T15:31:37.934Z,3.33
2023-04-23T15:34:12.430Z,5.03
2023-04-23T15:36:41.298Z,4.03
2023-04-23T15:39:11.130Z,3.58
2023-04-23T15:41:41.523Z,3.28
2023-04-23T15:44:12.492Z,3.80
2023-04-23T15:46:41.523Z,1.85
2023-04-23T15:49:09.965Z,3.67
2023-04-23T15:51:38.930Z,5.35
2023-04-23T15:54:09.045Z,3.70
2023-04-23T15:56:42.140Z,3.00
2023-04-23T15:59:11.023Z,3.40
2023-04-23T16:01:39.789Z,3.53
2023-04-23T16:04:10.401Z,4.43
2023-04-23T16:06:40.137Z,4.70
2023-04-23T16:09:08.953Z,3.92
2023-04-23T16:11:39.953Z,3.15
2023-04-23T16:14:10.149Z,2.45
2023-04-23T16:16:39.412Z,4.35
2023-04-23T16:19:07.882Z,2.35
2023-04-23T16:21:36.310Z,1.75
2023-04-23T16:24:07.902Z,1.88
2023-04-23T16:26:37.432Z,1.98
2023-04-23T16:29:21.607Z,3.10
2023-04-23T16:31:51.449Z,5.30
2023-04-23T16:34:20.077Z,4.00
2023-04-23T16:36:50.088Z,4.63
2023-04-23T16:39:20.817Z,4.30
2023-04-23T16:41:49.282Z,3.03
2023-04-23T16:44:19.251Z,4.83
2023-04-23T16:46:47.778Z,2.93
2023-04-23T16:49:16.294Z,3.43
2023-04-23T16:51:45.328Z,5.00
2023-04-23T16:54:13.706Z,3.40
2023-04-23T16:56:42.415Z,5.30
2023-04-23T16:59:10.722Z,5.17
2023-04-23T17:01:40.462Z,4.03
2023-04-23T17:04:09.601Z,3.03
2023-04-23T17:06:38.166Z,5.40
2023-04-23T17:09:08.969Z,4.83
2023-04-23T17:11:37.353Z,4.17
2023-04-23T17:14:05.821Z,3.73
2023-04-23T17:16:34.428Z,5.43
2023-04-23T17:19:04.398Z,2.43
2023-04-23T17:21:33.034Z,2.80
2023-04-23T17:24:02.753Z,2.83
2023-04-23T17:26:31.256Z,2.80
2023-04-23T17:29:00.313Z,3.43
2023-04-23T17:31:28.814Z,6.43
2023-04-23T17:33:58.829Z,4.10
2023-04-23T17:36:28.649Z,3.40
2023-04-23T17:38:59.869Z,3.60
2023-04-23T17:41:28.460Z,2.53
2023-04-23T17:43:57.955Z,3.57
2023-04-23T17:46:27.161Z,4.60
2023-04-23T17:48:56.499Z,4.97
2023-04-23T17:51:25.301Z,6.47
2023-04-23T17:53:59.745Z,6.87
2023-04-23T17:56:29.040Z,5.37
2023-04-23T17:58:58.417Z,4.47
2023-04-23T18:01:27.892Z,3.20
2023-04-23T18:03:57.051Z,6.03
2023-04-23T18:06:26.713Z,3.23
2023-04-23T18:08:57.980Z,4.83
2023-04-23T18:11:27.620Z,3.83
2023-04-23T18:13:56.918Z,4.83
2023-04-23T18:16:26.478Z,5.10
2023-04-23T18:18:56.454Z,3.90
2023-04-23T18:21:26.416Z,6.17
2023-04-23T18:23:58.453Z,5.07
2023-04-23T18:26:29.255Z,5.13
2023-04-23T18:28:58.524Z,5.57
2023-04-23T18:31:29.031Z,5.47
2023-04-23T18:34:03.760Z,4.70
2023-04-23T18:36:36.575Z,5.77
2023-04-23T18:39:07.455Z,5.83
2023-04-23T18:41:36.091Z,6.03
2023-04-23T18:44:08.337Z,5.57
2023-04-23T18:46:37.182Z,3.93
2023-04-23T18:49:08.081Z,4.10
2023-04-23T18:51:45.063Z,3.37
2023-04-23T18:54:15.997Z,5.97
2023-04-23T18:56:45.036Z,6.53
2023-04-23T18:59:14.081Z,7.10
2023-04-23T19:01:44.685Z,7.23
2023-04-23T19:04:15.343Z,5.47
2023-04-23T19:06:44.445Z,5.03
2023-04-23T19:09:14.430Z,6.13
2023-04-23T19:11:47.909Z,5.40
2023-04-23T19:14:19.730Z,7.67
2023-04-23T19:16:50.694Z,6.40
2023-04-23T19:19:21.251Z,3.27
2023-04-23T19:21:50.070Z,5.73
2023-04-23T19:24:22.647Z,6.80
2023-04-23T19:26:51.524Z,5.23
2023-04-23T19:29:25.007Z,8.57
2023-04-23T19:31:54.527Z,5.10
2023-04-23T19:34:23.088Z,5.00
2023-04-23T19:36:51.860Z,6.60
2023-04-23T19:39:23.710Z,5.43
2023-04-23T19:41:52.725Z,4.53
2023-04-23T19:44:21.926Z,5.93
2023-04-23T19:46:50.568Z,4.77
2023-04-23T19:49:19.599Z,4.00
2023-04-23T19:51:48.514Z,4.10
2023-04-23T19:54:16.878Z,5.97
2023-04-23T19:56:46.846Z,5.17
2023-04-23T19:59:17.007Z,4.43
2023-04-23T20:01:45.420Z,5.60
2023-04-23T20:04:13.933Z,4.53
2023-04-23T20:06:43.306Z,6.57
2023-04-23T20:09:18.249Z,5.70
2023-04-23T20:11:48.802Z,5.67
2023-04-23T20:14:17.158Z,6.87
2023-04-23T20:16:46.594Z,5.37
2023-04-23T20:19:15.880Z,5.43
2023-04-23T20:21:45.738Z,8.87
2023-04-23T20:24:15.552Z,5.47
2023-04-23T20:26:44.236Z,6.23
2023-04-23T20:29:14.401Z,7.40
2023-04-23T20:31:42.908Z,6.23
2023-04-23T20:34:11.656Z,6.70
2023-04-23T20:36:40.049Z,6.00
2023-04-23T20:39:08.425Z,6.70
2023-04-23T20:41:36.935Z,7.40
2023-04-23T20:44:09.155Z,7.27
2023-04-23T20:46:39.536Z,6.17
2023-04-23T20:49:08.819Z,8.07
2023-04-23T20:51:37.272Z,6.63
2023-04-23T20:54:06.232Z,7.80
2023-04-23T20:56:34.690Z,8.47
2023-04-23T20:59:03.118Z,8.77
2023-04-23T21:01:31.632Z,7.13
2023-04-23T21:04:02.691Z,5.93
2023-04-23T21:06:33.451Z,7.07
2023-04-23T21:09:01.945Z,6.20
2023-04-23T21:11:31.293Z,7.70
2023-04-23T21:14:01.143Z,7.90
2023-04-23T21:16:31.364Z,7.43
2023-04-23T21:19:01.462Z,7.47
2023-04-23T21:21:31.734Z,7.60
2023-04-23T21:24:01.035Z,6.63
2023-04-23T21:26:31.548Z,7.80
2023-04-23T21:29:00.320Z,7.43
2023-04-23T21:31:44.924Z,9.17
2023-04-23T21:34:15.533Z,10.20
2023-04-23T21:36:44.797Z,9.87
2023-04-23T21:39:14.001Z,11.27
2023-04-23T21:41:44.791Z,10.50
2023-04-23T21:44:13.232Z,11.73
2023-04-23T21:46:44.907Z,9.13
2023-04-23T21:49:15.073Z,9.30
2023-04-23T21:51:44.614Z,10.87
2023-04-23T21:54:12.928Z,11.30
2023-04-23T21:56:41.931Z,10.57
2023-04-23T21:59:11.743Z,10.67
2023-04-23T22:01:41.224Z,11.03
2023-04-23T22:04:10.268Z,11.33
2023-04-23T22:06:40.320Z,10.93
2023-04-23T22:09:10.281Z,10.03
2023-04-23T22:11:39.048Z,9.40
2023-04-23T22:14:09.111Z,11.00
2023-04-23T22:16:37.604Z,10.87
2023-04-23T22:19:06.105Z,12.83
2023-04-23T22:21:54.736Z,12.50
2023-04-23T22:24:25.402Z,10.97
2023-04-23T22:26:54.177Z,13.00
2023-04-23T22:29:26.721Z,12.23
2023-04-23T22:31:55.533Z,12.40
2023-04-23T22:34:25.693Z,13.77
2023-04-23T22:36:55.781Z,13.03
2023-04-23T22:39:24.718Z,12.10
2023-04-23T22:41:55.548Z,11.90
2023-04-23T22:44:23.997Z,13.13
2023-04-23T22:46:53.124Z,10.10
2023-04-23T22:49:22.012Z,12.23
2023-04-23T22:51:50.821Z,14.03
2023-04-23T22:54:20.908Z,12.40
2023-04-23T22:56:49.711Z,10.37
2023-04-23T22:59:20.865Z,10.63
2023-04-23T23:01:50.684Z,13.10
2023-04-23T23:04:19.334Z,13.40
2023-04-23T23:06:47.698Z,11.57
2023-04-23T23:09:16.080Z,12.30
2023-04-23T23:11:46.268Z,12.50
2023-04-23T23:14:14.697Z,12.90
2023-04-23T23:16:43.164Z,14.37
2023-04-23T23:19:12.470Z,11.87
2023-04-23T23:21:42.490Z,15.33
2023-04-23T23:24:10.867Z,11.60
2023-04-23T23:26:39.592Z,12.03
2023-04-23T23:29:09.426Z,12.63
2023-04-23T23:31:38.024Z,10.80
2023-04-23T23:34:06.772Z,9.93
2023-04-23T23:36:35.340Z,11.23
2023-04-23T23:39:04.544Z,11.30
2023-04-23T23:41:33.147Z,11.20
2023-04-23T23:44:01.579Z,8.70
2023-04-23T23:46:31.714Z,9.47
2023-04-23T23:49:00.296Z,9.43
2023-04-23T23:51:30.927Z,7.30
2023-04-23T23:53:59.548Z,6.77
2023-04-23T23:56:28.418Z,6.40
2023-04-23T23:58:56.980Z,5.40
